sensor_id;sensor_type;location;lat;lon;timestamp;P1;durP1;ratioP1;P2;durP2;ratioP2
20298;SDS011;10308;42.688;23.256;2023-11-19T00:02:25;2.20;;;2.10;;
20298;SDS011;10308;42.688;23.256;2023-11-19T00:04:52;2.08;;;1.98;;
20298;SDS011;10308;42.688;23.256;2023-11-19T00:07:19;1.95;;;1.85;;
20298;SDS011;10308;42.688;23.256;2023-11-19T00:09:47;2.10;;;2.00;;
20298;SDS011;10308;42.688;23.256;2023-11-19T00:12:14;2.40;;;2.20;;
20298;SDS011;10308;42.688;23.256;2023-11-19T00:14:43;1.92;;;1.83;;
20298;SDS011;10308;42.688;23.256;2023-11-19T00:17:12;2.33;;;2.22;;
20298;SDS011;10308;42.688;23.256;2023-11-19T00:19:39;2.10;;;2.00;;
20298;SDS011;10308;42.688;23.256;2023-11-19T00:22:06;2.35;;;2.25;;
20298;SDS011;10308;42.688;23.256;2023-11-19T00:24:33;2.40;;;2.20;;
20298;SDS011;10308;42.688;23.256;2023-11-19T00:27:02;2.20;;;2.10;;
20298;SDS011;10308;42.688;23.256;2023-11-19T00:29:29;2.08;;;1.98;;
20298;SDS011;10308;42.688;23.256;2023-11-19T00:31:57;2.95;;;2.10;;
20298;SDS011;10308;42.688;23.256;2023-11-19T00:34:25;2.20;;;2.10;;
20298;SDS011;10308;42.688;23.256;2023-11-19T00:36:53;2.10;;;2.00;;
20298;SDS011;10308;42.688;23.256;2023-11-19T00:39:21;2.33;;;2.22;;
20298;SDS011;10308;42.688;23.256;2023-11-19T00:41:48;2.53;;;2.33;;
20298;SDS011;10308;42.688;23.256;2023-11-19T00:44:15;2.45;;;2.35;;
20298;SDS011;10308;42.688;23.256;2023-11-19T00:46:42;2.33;;;2.22;;
20298;SDS011;10308;42.688;23.256;2023-11-19T00:49:11;2.45;;;2.35;;
20298;SDS011;10308;42.688;23.256;2023-11-19T00:51:39;2.65;;;2.45;;
20298;SDS011;10308;42.688;23.256;2023-11-19T00:54:06;2.42;;;2.30;;
20298;SDS011;10308;42.688;23.256;2023-11-19T00:56:32;2.20;;;2.10;;
20298;SDS011;10308;42.688;23.256;2023-11-19T00:58:59;2.72;;;2.47;;
20298;SDS011;10308;42.688;23.256;2023-11-19T01:01:26;1.95;;;1.85;;
20298;SDS011;10308;42.688;23.256;2023-11-19T01:03:53;2.28;;;2.17;;
20298;SDS011;10308;42.688;23.256;2023-11-19T01:06:30;2.40;;;2.20;;
20298;SDS011;10308;42.688;23.256;2023-11-19T01:08:58;2.45;;;2.13;;
20298;SDS011;10308;42.688;23.256;2023-11-19T01:11:25;2.17;;;2.08;;
20298;SDS011;10308;42.688;23.256;2023-11-19T01:13:53;2.08;;;1.98;;
20298;SDS011;10308;42.688;23.256;2023-11-19T01:16:20;2.20;;;2.10;;
20298;SDS011;10308;42.688;23.256;2023-11-19T01:18:47;2.17;;;2.08;;
20298;SDS011;10308;42.688;23.256;2023-11-19T01:21:14;2.47;;;2.20;;
20298;SDS011;10308;42.688;23.256;2023-11-19T01:23:41;2.30;;;2.10;;
20298;SDS011;10308;42.688;23.256;2023-11-19T01:26:13;2.10;;;2.00;;
20298;SDS011;10308;42.688;23.256;2023-11-19T01:28:40;2.00;;;1.90;;
20298;SDS011;10308;42.688;23.256;2023-11-19T01:31:11;2.30;;;2.13;;
20298;SDS011;10308;42.688;23.256;2023-11-19T01:33:38;2.30;;;2.10;;
20298;SDS011;10308;42.688;23.256;2023-11-19T01:36:06;2.00;;;1.90;;
20298;SDS011;10308;42.688;23.256;2023-11-19T01:38:34;2.22;;;2.13;;
20298;SDS011;10308;42.688;23.256;2023-11-19T01:41:01;2.28;;;2.03;;
20298;SDS011;10308;42.688;23.256;2023-11-19T01:43:34;2.17;;;2.08;;
20298;SDS011;10308;42.688;23.256;2023-11-19T01:46:01;2.10;;;2.00;;
20298;SDS011;10308;42.688;23.256;2023-11-19T01:48:29;2.35;;;2.20;;
20298;SDS011;10308;42.688;23.256;2023-11-19T01:50:56;2.15;;;2.05;;
20298;SDS011;10308;42.688;23.256;2023-11-19T01:53:23;2.33;;;2.17;;
20298;SDS011;10308;42.688;23.256;2023-11-19T01:55:51;2.15;;;2.00;;
20298;SDS011;10308;42.688;23.256;2023-11-19T01:58:18;2.03;;;1.92;;
20298;SDS011;10308;42.688;23.256;2023-11-19T02:00:47;2.20;;;2.10;;
20298;SDS011;10308;42.688;23.256;2023-11-19T02:03:14;2.17;;;2.08;;
20298;SDS011;10308;42.688;23.256;2023-11-19T02:05:41;2.10;;;2.00;;
20298;SDS011;10308;42.688;23.256;2023-11-19T02:08:08;2.40;;;2.30;;
20298;SDS011;10308;42.688;23.256;2023-11-19T02:10:38;2.20;;;2.10;;
20298;SDS011;10308;42.688;23.256;2023-11-19T02:13:05;2.38;;;2.28;;
20298;SDS011;10308;42.688;23.256;2023-11-19T02:15:32;2.20;;;2.10;;
20298;SDS011;10308;42.688;23.256;2023-11-19T02:20:47;2.20;;;2.10;;
20298;SDS011;10308;42.688;23.256;2023-11-19T02:23:15;1.90;;;1.80;;
20298;SDS011;10308;42.688;23.256;2023-11-19T02:25:42;2.00;;;1.90;;
20298;SDS011;10308;42.688;23.256;2023-11-19T02:28:11;2.20;;;2.10;;
20298;SDS011;10308;42.688;23.256;2023-11-19T02:30:38;2.17;;;2.08;;
20298;SDS011;10308;42.688;23.256;2023-11-19T02:33:05;2.40;;;2.30;;
20298;SDS011;10308;42.688;23.256;2023-11-19T02:35:32;2.40;;;2.30;;
20298;SDS011;10308;42.688;23.256;2023-11-19T02:38:00;2.13;;;2.03;;
20298;SDS011;10308;42.688;23.256;2023-11-19T02:40:29;2.33;;;2.15;;
20298;SDS011;10308;42.688;23.256;2023-11-19T02:42:55;2.20;;;2.10;;
20298;SDS011;10308;42.688;23.256;2023-11-19T02:45:24;2.20;;;2.10;;
20298;SDS011;10308;42.688;23.256;2023-11-19T02:47:52;2.47;;;2.28;;
20298;SDS011;10308;42.688;23.256;2023-11-19T02:50:20;2.30;;;2.20;;
20298;SDS011;10308;42.688;23.256;2023-11-19T02:52:51;2.33;;;2.22;;
20298;SDS011;10308;42.688;23.256;2023-11-19T02:55:19;2.30;;;2.20;;
20298;SDS011;10308;42.688;23.256;2023-11-19T02:57:48;2.50;;;2.30;;
20298;SDS011;10308;42.688;23.256;2023-11-19T03:00:16;2.17;;;2.08;;
20298;SDS011;10308;42.688;23.256;2023-11-19T03:02:45;2.20;;;2.10;;
20298;SDS011;10308;42.688;23.256;2023-11-19T03:05:13;2.67;;;2.47;;
20298;SDS011;10308;42.688;23.256;2023-11-19T03:07:41;3.47;;;3.17;;
20298;SDS011;10308;42.688;23.256;2023-11-19T03:10:11;3.63;;;3.33;;
20298;SDS011;10308;42.688;23.256;2023-11-19T03:12:39;2.15;;;2.05;;
20298;SDS011;10308;42.688;23.256;2023-11-19T03:15:06;2.47;;;2.28;;
20298;SDS011;10308;42.688;23.256;2023-11-19T03:17:35;2.33;;;2.22;;
20298;SDS011;10308;42.688;23.256;2023-11-19T03:20:06;2.38;;;2.17;;
20298;SDS011;10308;42.688;23.256;2023-11-19T03:22:34;2.50;;;2.30;;
20298;SDS011;10308;42.688;23.256;2023-11-19T03:25:01;2.78;;;2.58;;
20298;SDS011;10308;42.688;23.256;2023-11-19T03:27:29;2.30;;;2.10;;
20298;SDS011;10308;42.688;23.256;2023-11-19T03:29:56;2.28;;;2.17;;
20298;SDS011;10308;42.688;23.256;2023-11-19T03:32:23;2.40;;;2.30;;
20298;SDS011;10308;42.688;23.256;2023-11-19T03:34:49;2.13;;;2.00;;
20298;SDS011;10308;42.688;23.256;2023-11-19T03:37:18;2.40;;;2.30;;
20298;SDS011;10308;42.688;23.256;2023-11-19T03:39:45;2.20;;;2.10;;
20298;SDS011;10308;42.688;23.256;2023-11-19T03:42:12;2.90;;;2.70;;
20298;SDS011;10308;42.688;23.256;2023-11-19T03:44:39;2.53;;;2.42;;
20298;SDS011;10308;42.688;23.256;2023-11-19T03:47:06;2.75;;;2.55;;
20298;SDS011;10308;42.688;23.256;2023-11-19T03:49:33;2.25;;;2.15;;
20298;SDS011;10308;42.688;23.256;2023-11-19T03:52:00;2.00;;;1.90;;
20298;SDS011;10308;42.688;23.256;2023-11-19T03:54:28;2.15;;;2.05;;
20298;SDS011;10308;42.688;23.256;2023-11-19T03:56:55;2.40;;;2.30;;
20298;SDS011;10308;42.688;23.256;2023-11-19T03:59:22;2.58;;;2.40;;
20298;SDS011;10308;42.688;23.256;2023-11-19T04:01:49;2.35;;;2.25;;
20298;SDS011;10308;42.688;23.256;2023-11-19T04:04:16;2.17;;;2.08;;
20298;SDS011;10308;42.688;23.256;2023-11-19T04:06:44;2.20;;;2.10;;
20298;SDS011;10308;42.688;23.256;2023-11-19T04:09:11;2.20;;;2.10;;
20298;SDS011;10308;42.688;23.256;2023-11-19T04:11:40;2.72;;;2.53;;
20298;SDS011;10308;42.688;23.256;2023-11-19T04:14:07;2.47;;;2.38;;
20298;SDS011;10308;42.688;23.256;2023-11-19T04:16:35;2.30;;;2.20;;
20298;SDS011;10308;42.688;23.256;2023-11-19T04:19:02;2.50;;;2.40;;
20298;SDS011;10308;42.688;23.256;2023-11-19T04:21:29;2.60;;;2.50;;
20298;SDS011;10308;42.688;23.256;2023-11-19T04:23:56;3.33;;;3.10;;
20298;SDS011;10308;42.688;23.256;2023-11-19T04:26:23;2.42;;;2.33;;
20298;SDS011;10308;42.688;23.256;2023-11-19T04:28:51;2.60;;;2.50;;
20298;SDS011;10308;42.688;23.256;2023-11-19T04:31:19;2.70;;;2.50;;
20298;SDS011;10308;42.688;23.256;2023-11-19T04:33:46;2.35;;;2.25;;
20298;SDS011;10308;42.688;23.256;2023-11-19T04:36:13;2.15;;;2.05;;
20298;SDS011;10308;42.688;23.256;2023-11-19T04:38:46;2.58;;;2.40;;
20298;SDS011;10308;42.688;23.256;2023-11-19T04:41:15;2.40;;;2.30;;
20298;SDS011;10308;42.688;23.256;2023-11-19T04:43:42;2.30;;;2.20;;
20298;SDS011;10308;42.688;23.256;2023-11-19T04:46:11;2.60;;;2.40;;
20298;SDS011;10308;42.688;23.256;2023-11-19T04:48:38;2.50;;;2.40;;
20298;SDS011;10308;42.688;23.256;2023-11-19T04:51:05;3.00;;;2.80;;
20298;SDS011;10308;42.688;23.256;2023-11-19T04:53:32;2.70;;;2.50;;
20298;SDS011;10308;42.688;23.256;2023-11-19T04:55:59;2.55;;;2.45;;
20298;SDS011;10308;42.688;23.256;2023-11-19T04:58:28;2.40;;;2.30;;
20298;SDS011;10308;42.688;23.256;2023-11-19T05:00:55;2.55;;;2.45;;
20298;SDS011;10308;42.688;23.256;2023-11-19T05:03:24;2.40;;;2.30;;
20298;SDS011;10308;42.688;23.256;2023-11-19T05:05:52;2.47;;;2.30;;
20298;SDS011;10308;42.688;23.256;2023-11-19T05:08:19;2.40;;;2.22;;
20298;SDS011;10308;42.688;23.256;2023-11-19T05:10:46;2.50;;;2.40;;
20298;SDS011;10308;42.688;23.256;2023-11-19T05:13:12;2.53;;;2.33;;
20298;SDS011;10308;42.688;23.256;2023-11-19T05:15:40;2.40;;;2.30;;
20298;SDS011;10308;42.688;23.256;2023-11-19T05:18:07;2.58;;;2.45;;
20298;SDS011;10308;42.688;23.256;2023-11-19T05:20:35;2.50;;;2.40;;
20298;SDS011;10308;42.688;23.256;2023-11-19T05:23:02;2.40;;;2.30;;
20298;SDS011;10308;42.688;23.256;2023-11-19T05:25:31;2.53;;;2.40;;
20298;SDS011;10308;42.688;23.256;2023-11-19T05:27:58;2.30;;;2.20;;
20298;SDS011;10308;42.688;23.256;2023-11-19T05:30:25;2.80;;;2.60;;
20298;SDS011;10308;42.688;23.256;2023-11-19T05:32:52;2.58;;;2.45;;
20298;SDS011;10308;42.688;23.256;2023-11-19T05:35:19;2.50;;;2.30;;
20298;SDS011;10308;42.688;23.256;2023-11-19T05:37:47;2.40;;;2.30;;
20298;SDS011;10308;42.688;23.256;2023-11-19T05:40:15;2.50;;;2.30;;
20298;SDS011;10308;42.688;23.256;2023-11-19T05:42:44;2.33;;;2.22;;
20298;SDS011;10308;42.688;23.256;2023-11-19T05:45:13;2.65;;;2.50;;
20298;SDS011;10308;42.688;23.256;2023-11-19T05:47:41;2.55;;;2.35;;
20298;SDS011;10308;42.688;23.256;2023-11-19T05:50:09;2.70;;;2.50;;
20298;SDS011;10308;42.688;23.256;2023-11-19T05:52:36;3.10;;;2.90;;
20298;SDS011;10308;42.688;23.256;2023-11-19T05:55:05;3.25;;;3.05;;
20298;SDS011;10308;42.688;23.256;2023-11-19T05:57:35;3.22;;;3.03;;
20298;SDS011;10308;42.688;23.256;2023-11-19T06:00:02;3.17;;;2.97;;
20298;SDS011;10308;42.688;23.256;2023-11-19T06:02:32;2.67;;;2.47;;
20298;SDS011;10308;42.688;23.256;2023-11-19T06:04:59;2.70;;;2.53;;
20298;SDS011;10308;42.688;23.256;2023-11-19T06:07:28;2.90;;;2.70;;
20298;SDS011;10308;42.688;23.256;2023-11-19T06:09:55;2.70;;;2.50;;
20298;SDS011;10308;42.688;23.256;2023-11-19T06:12:23;2.50;;;2.40;;
20298;SDS011;10308;42.688;23.256;2023-11-19T06:14:52;2.80;;;2.60;;
20298;SDS011;10308;42.688;23.256;2023-11-19T06:17:19;2.83;;;2.65;;
20298;SDS011;10308;42.688;23.256;2023-11-19T06:19:46;2.65;;;2.55;;
20298;SDS011;10308;42.688;23.256;2023-11-19T06:22:13;2.58;;;2.40;;
20298;SDS011;10308;42.688;23.256;2023-11-19T06:24:40;2.60;;;2.45;;
20298;SDS011;10308;42.688;23.256;2023-11-19T06:27:07;3.03;;;2.83;;
20298;SDS011;10308;42.688;23.256;2023-11-19T06:29:36;2.92;;;2.72;;
20298;SDS011;10308;42.688;23.256;2023-11-19T06:32:03;2.85;;;2.65;;
20298;SDS011;10308;42.688;23.256;2023-11-19T06:34:31;3.10;;;2.90;;
20298;SDS011;10308;42.688;23.256;2023-11-19T06:36:59;3.00;;;2.80;;
20298;SDS011;10308;42.688;23.256;2023-11-19T06:39:28;2.60;;;2.40;;
20298;SDS011;10308;42.688;23.256;2023-11-19T06:41:55;2.85;;;2.65;;
20298;SDS011;10308;42.688;23.256;2023-11-19T06:44:22;3.33;;;3.13;;
20298;SDS011;10308;42.688;23.256;2023-11-19T06:46:51;3.20;;;3.00;;
20298;SDS011;10308;42.688;23.256;2023-11-19T06:49:19;3.28;;;3.08;;
20298;SDS011;10308;42.688;23.256;2023-11-19T06:51:45;2.80;;;2.60;;
20298;SDS011;10308;42.688;23.256;2023-11-19T06:54:12;3.40;;;2.60;;
20298;SDS011;10308;42.688;23.256;2023-11-19T06:56:40;2.78;;;2.60;;
20298;SDS011;10308;42.688;23.256;2023-11-19T06:59:06;3.45;;;2.92;;
20298;SDS011;10308;42.688;23.256;2023-11-19T07:01:37;2.88;;;2.67;;
20298;SDS011;10308;42.688;23.256;2023-11-19T07:04:05;2.90;;;2.70;;
20298;SDS011;10308;42.688;23.256;2023-11-19T07:06:34;3.00;;;2.80;;
20298;SDS011;10308;42.688;23.256;2023-11-19T07:09:02;3.13;;;2.90;;
20298;SDS011;10308;42.688;23.256;2023-11-19T07:11:35;3.35;;;3.15;;
20298;SDS011;10308;42.688;23.256;2023-11-19T07:14:04;3.20;;;3.00;;
20298;SDS011;10308;42.688;23.256;2023-11-19T07:16:33;3.60;;;3.30;;
20298;SDS011;10308;42.688;23.256;2023-11-19T07:19:02;3.40;;;3.20;;
20298;SDS011;10308;42.688;23.256;2023-11-19T07:21:32;3.05;;;2.85;;
20298;SDS011;10308;42.688;23.256;2023-11-19T07:23:59;3.00;;;2.70;;
20298;SDS011;10308;42.688;23.256;2023-11-19T07:26:26;3.30;;;3.10;;
20298;SDS011;10308;42.688;23.256;2023-11-19T07:28:53;3.13;;;2.92;;
20298;SDS011;10308;42.688;23.256;2023-11-19T07:31:21;3.15;;;2.95;;
20298;SDS011;10308;42.688;23.256;2023-11-19T07:33:49;2.92;;;2.72;;
20298;SDS011;10308;42.688;23.256;2023-11-19T07:36:17;3.70;;;3.40;;
20298;SDS011;10308;42.688;23.256;2023-11-19T07:38:46;3.60;;;3.30;;
20298;SDS011;10308;42.688;23.256;2023-11-19T07:41:13;3.03;;;2.83;;
20298;SDS011;10308;42.688;23.256;2023-11-19T07:43:41;3.10;;;2.90;;
20298;SDS011;10308;42.688;23.256;2023-11-19T07:46:13;2.75;;;2.55;;
20298;SDS011;10308;42.688;23.256;2023-11-19T07:48:40;2.92;;;2.60;;
20298;SDS011;10308;42.688;23.256;2023-11-19T07:51:07;4.32;;;3.92;;
20298;SDS011;10308;42.688;23.256;2023-11-19T07:53:35;2.80;;;2.60;;
20298;SDS011;10308;42.688;23.256;2023-11-19T07:56:05;2.92;;;2.72;;
20298;SDS011;10308;42.688;23.256;2023-11-19T07:58:32;3.40;;;2.85;;
20298;SDS011;10308;42.688;23.256;2023-11-19T08:00:59;2.50;;;2.30;;
20298;SDS011;10308;42.688;23.256;2023-11-19T08:03:27;2.78;;;2.58;;
20298;SDS011;10308;42.688;23.256;2023-11-19T08:05:55;2.90;;;2.70;;
20298;SDS011;10308;42.688;23.256;2023-11-19T08:08:22;2.70;;;2.50;;
20298;SDS011;10308;42.688;23.256;2023-11-19T08:10:52;2.67;;;2.47;;
20298;SDS011;10308;42.688;23.256;2023-11-19T08:13:21;2.80;;;2.60;;
20298;SDS011;10308;42.688;23.256;2023-11-19T08:15:49;3.17;;;2.97;;
20298;SDS011;10308;42.688;23.256;2023-11-19T08:18:16;3.20;;;2.90;;
20298;SDS011;10308;42.688;23.256;2023-11-19T08:20:44;3.50;;;3.20;;
20298;SDS011;10308;42.688;23.256;2023-11-19T08:23:14;3.17;;;2.97;;
20298;SDS011;10308;42.688;23.256;2023-11-19T08:25:41;3.35;;;3.15;;
20298;SDS011;10308;42.688;23.256;2023-11-19T08:28:09;3.10;;;2.90;;
20298;SDS011;10308;42.688;23.256;2023-11-19T08:30:40;3.30;;;3.10;;
20298;SDS011;10308;42.688;23.256;2023-11-19T08:33:07;3.35;;;3.15;;
20298;SDS011;10308;42.688;23.256;2023-11-19T08:35:33;3.10;;;2.90;;
20298;SDS011;10308;42.688;23.256;2023-11-19T08:38:00;3.10;;;2.90;;
20298;SDS011;10308;42.688;23.256;2023-11-19T08:40:27;3.35;;;3.15;;
20298;SDS011;10308;42.688;23.256;2023-11-19T08:42:55;3.40;;;3.20;;
20298;SDS011;10308;42.688;23.256;2023-11-19T08:45:21;3.60;;;3.38;;
20298;SDS011;10308;42.688;23.256;2023-11-19T08:47:50;4.13;;;3.83;;
20298;SDS011;10308;42.688;23.256;2023-11-19T08:50:17;3.10;;;2.90;;
20298;SDS011;10308;42.688;23.256;2023-11-19T08:52:44;2.88;;;2.70;;
20298;SDS011;10308;42.688;23.256;2023-11-19T08:55:12;3.97;;;3.67;;
20298;SDS011;10308;42.688;23.256;2023-11-19T08:57:38;3.20;;;3.00;;
20298;SDS011;10308;42.688;23.256;2023-11-19T09:00:05;3.28;;;3.08;;
20298;SDS011;10308;42.688;23.256;2023-11-19T09:02:33;3.60;;;3.40;;
20298;SDS011;10308;42.688;23.256;2023-11-19T09:05:03;3.58;;;3.28;;
20298;SDS011;10308;42.688;23.256;2023-11-19T09:07:31;3.00;;;2.80;;
20298;SDS011;10308;42.688;23.256;2023-11-19T09:09:59;4.15;;;3.85;;
20298;SDS011;10308;42.688;23.256;2023-11-19T09:12:26;3.53;;;3.22;;
20298;SDS011;10308;42.688;23.256;2023-11-19T09:14:53;3.33;;;3.13;;
20298;SDS011;10308;42.688;23.256;2023-11-19T09:17:20;3.53;;;3.33;;
20298;SDS011;10308;42.688;23.256;2023-11-19T09:19:47;3.63;;;3.42;;
20298;SDS011;10308;42.688;23.256;2023-11-19T09:22:15;3.85;;;3.55;;
20298;SDS011;10308;42.688;23.256;2023-11-19T09:24:42;3.30;;;3.10;;
20298;SDS011;10308;42.688;23.256;2023-11-19T09:27:10;3.30;;;3.10;;
20298;SDS011;10308;42.688;23.256;2023-11-19T09:29:39;3.67;;;3.45;;
20298;SDS011;10308;42.688;23.256;2023-11-19T09:32:06;3.30;;;3.10;;
20298;SDS011;10308;42.688;23.256;2023-11-19T09:34:33;3.40;;;3.20;;
20298;SDS011;10308;42.688;23.256;2023-11-19T09:37:01;3.55;;;3.25;;
20298;SDS011;10308;42.688;23.256;2023-11-19T09:39:29;3.28;;;3.08;;
20298;SDS011;10308;42.688;23.256;2023-11-19T09:41:56;3.15;;;2.95;;
20298;SDS011;10308;42.688;23.256;2023-11-19T09:44:23;3.22;;;2.95;;
20298;SDS011;10308;42.688;23.256;2023-11-19T09:46:50;4.35;;;3.35;;
20298;SDS011;10308;42.688;23.256;2023-11-19T09:49:19;3.15;;;2.95;;
20298;SDS011;10308;42.688;23.256;2023-11-19T09:51:49;3.08;;;2.88;;
20298;SDS011;10308;42.688;23.256;2023-11-19T09:54:18;2.88;;;2.67;;
20298;SDS011;10308;42.688;23.256;2023-11-19T09:56:48;2.95;;;2.65;;
20298;SDS011;10308;42.688;23.256;2023-11-19T09:59:15;2.90;;;2.70;;
20298;SDS011;10308;42.688;23.256;2023-11-19T10:01:42;3.53;;;3.22;;
20298;SDS011;10308;42.688;23.256;2023-11-19T10:04:10;3.80;;;3.50;;
20298;SDS011;10308;42.688;23.256;2023-11-19T10:06:38;3.42;;;3.20;;
20298;SDS011;10308;42.688;23.256;2023-11-19T10:09:05;2.90;;;2.70;;
20298;SDS011;10308;42.688;23.256;2023-11-19T10:11:32;3.10;;;2.90;;
20298;SDS011;10308;42.688;23.256;2023-11-19T10:14:01;3.70;;;3.40;;
20298;SDS011;10308;42.688;23.256;2023-11-19T10:16:29;3.10;;;2.80;;
20298;SDS011;10308;42.688;23.256;2023-11-19T10:19:00;3.40;;;3.10;;
20298;SDS011;10308;42.688;23.256;2023-11-19T10:21:28;3.50;;;3.20;;
20298;SDS011;10308;42.688;23.256;2023-11-19T10:23:57;3.28;;;3.03;;
20298;SDS011;10308;42.688;23.256;2023-11-19T10:26:25;3.17;;;2.92;;
20298;SDS011;10308;42.688;23.256;2023-11-19T10:28:53;2.85;;;2.65;;
20298;SDS011;10308;42.688;23.256;2023-11-19T10:31:21;2.88;;;2.67;;
20298;SDS011;10308;42.688;23.256;2023-11-19T10:33:50;2.90;;;2.70;;
20298;SDS011;10308;42.688;23.256;2023-11-19T10:36:17;2.88;;;2.67;;
20298;SDS011;10308;42.688;23.256;2023-11-19T10:38:51;3.28;;;3.00;;
20298;SDS011;10308;42.688;23.256;2023-11-19T10:41:29;2.90;;;2.70;;
20298;SDS011;10308;42.688;23.256;2023-11-19T10:43:56;3.15;;;2.95;;
20298;SDS011;10308;42.688;23.256;2023-11-19T10:46:35;3.75;;;3.45;;
20298;SDS011;10308;42.688;23.256;2023-11-19T10:49:06;3.88;;;3.58;;
20298;SDS011;10308;42.688;23.256;2023-11-19T10:51:34;22.30;;;19.90;;
20298;SDS011;10308;42.688;23.256;2023-11-19T10:54:22;48.92;;;40.55;;
20298;SDS011;10308;42.688;23.256;2023-11-19T10:56:51;107.05;;;65.43;;
20298;SDS011;10308;42.688;23.256;2023-11-19T10:59:21;220.95;;;118.25;;
20298;SDS011;10308;42.688;23.256;2023-11-19T11:01:50;32.92;;;20.88;;
20298;SDS011;10308;42.688;23.256;2023-11-19T11:04:22;3.60;;;3.17;;
20298;SDS011;10308;42.688;23.256;2023-11-19T11:06:50;2.35;;;2.25;;
20298;SDS011;10308;42.688;23.256;2023-11-19T11:09:17;2.88;;;2.65;;
20298;SDS011;10308;42.688;23.256;2023-11-19T11:11:44;4.07;;;3.78;;
20298;SDS011;10308;42.688;23.256;2023-11-19T11:14:13;3.90;;;3.60;;
20298;SDS011;10308;42.688;23.256;2023-11-19T11:16:41;3.63;;;3.30;;
20298;SDS011;10308;42.688;23.256;2023-11-19T11:19:11;3.42;;;3.22;;
20298;SDS011;10308;42.688;23.256;2023-11-19T11:21:40;2.83;;;2.63;;
20298;SDS011;10308;42.688;23.256;2023-11-19T11:24:21;3.30;;;3.10;;
20298;SDS011;10308;42.688;23.256;2023-11-19T11:29:56;3.00;;;2.80;;
20298;SDS011;10308;42.688;23.256;2023-11-19T11:32:33;3.10;;;2.90;;
20298;SDS011;10308;42.688;23.256;2023-11-19T11:35:10;3.40;;;3.10;;
20298;SDS011;10308;42.688;23.256;2023-11-19T11:37:43;2.85;;;2.65;;
20298;SDS011;10308;42.688;23.256;2023-11-19T11:40:13;3.38;;;3.17;;
20298;SDS011;10308;42.688;23.256;2023-11-19T11:42:41;2.83;;;2.60;;
20298;SDS011;10308;42.688;23.256;2023-11-19T11:45:09;2.50;;;2.30;;
20298;SDS011;10308;42.688;23.256;2023-11-19T11:50:49;8.27;;;7.00;;
20298;SDS011;10308;42.688;23.256;2023-11-19T11:53:17;7.65;;;5.75;;
20298;SDS011;10308;42.688;23.256;2023-11-19T11:55:54;5.03;;;3.90;;
20298;SDS011;10308;42.688;23.256;2023-11-19T11:58:29;3.47;;;3.17;;
20298;SDS011;10308;42.688;23.256;2023-11-19T12:01:02;6.82;;;3.80;;
20298;SDS011;10308;42.688;23.256;2023-11-19T12:03:32;3.25;;;3.00;;
20298;SDS011;10308;42.688;23.256;2023-11-19T12:06:01;3.30;;;3.00;;
20298;SDS011;10308;42.688;23.256;2023-11-19T12:08:28;2.90;;;2.70;;
20298;SDS011;10308;42.688;23.256;2023-11-19T12:10:55;2.70;;;2.50;;
20298;SDS011;10308;42.688;23.256;2023-11-19T12:13:25;3.05;;;2.85;;
20298;SDS011;10308;42.688;23.256;2023-11-19T12:16:11;2.70;;;2.50;;
20298;SDS011;10308;42.688;23.256;2023-11-19T12:18:39;2.60;;;2.40;;
20298;SDS011;10308;42.688;23.256;2023-11-19T12:21:11;2.90;;;2.70;;
20298;SDS011;10308;42.688;23.256;2023-11-19T12:23:44;2.83;;;2.63;;
20298;SDS011;10308;42.688;23.256;2023-11-19T12:29:03;2.65;;;2.25;;
20298;SDS011;10308;42.688;23.256;2023-11-19T12:31:32;2.88;;;2.67;;
20298;SDS011;10308;42.688;23.256;2023-11-19T12:34:12;2.22;;;2.13;;
20298;SDS011;10308;42.688;23.256;2023-11-19T12:36:41;2.50;;;2.30;;
20298;SDS011;10308;42.688;23.256;2023-11-19T12:39:11;2.45;;;2.25;;
20298;SDS011;10308;42.688;23.256;2023-11-19T12:44:30;2.78;;;2.58;;
20298;SDS011;10308;42.688;23.256;2023-11-19T12:47:01;2.58;;;2.40;;
20298;SDS011;10308;42.688;23.256;2023-11-19T12:49:29;2.78;;;2.58;;
20298;SDS011;10308;42.688;23.256;2023-11-19T12:52:02;2.83;;;2.63;;
20298;SDS011;10308;42.688;23.256;2023-11-19T12:54:39;3.10;;;2.90;;
20298;SDS011;10308;42.688;23.256;2023-11-19T12:57:05;3.13;;;2.92;;
20298;SDS011;10308;42.688;23.256;2023-11-19T12:59:33;3.17;;;2.97;;
20298;SDS011;10308;42.688;23.256;2023-11-19T13:02:00;2.90;;;2.70;;
20298;SDS011;10308;42.688;23.256;2023-11-19T13:04:31;3.13;;;2.80;;
20298;SDS011;10308;42.688;23.256;2023-11-19T13:06:59;2.40;;;2.30;;
20298;SDS011;10308;42.688;23.256;2023-11-19T13:09:29;2.80;;;2.60;;
20298;SDS011;10308;42.688;23.256;2023-11-19T13:11:56;3.50;;;3.20;;
20298;SDS011;10308;42.688;23.256;2023-11-19T13:14:35;3.35;;;3.15;;
20298;SDS011;10308;42.688;23.256;2023-11-19T13:17:02;3.28;;;3.08;;
20298;SDS011;10308;42.688;23.256;2023-11-19T13:19:30;2.72;;;2.53;;
20298;SDS011;10308;42.688;23.256;2023-11-19T13:22:02;3.03;;;2.78;;
20298;SDS011;10308;42.688;23.256;2023-11-19T13:24:29;3.00;;;2.80;;
20298;SDS011;10308;42.688;23.256;2023-11-19T13:26:55;3.35;;;3.05;;
20298;SDS011;10308;42.688;23.256;2023-11-19T13:29:23;3.15;;;2.95;;
20298;SDS011;10308;42.688;23.256;2023-11-19T13:31:50;3.38;;;3.05;;
20298;SDS011;10308;42.688;23.256;2023-11-19T13:34:18;3.80;;;3.50;;
20298;SDS011;10308;42.688;23.256;2023-11-19T13:36:45;3.85;;;3.55;;
20298;SDS011;10308;42.688;23.256;2023-11-19T13:39:19;14.23;;;13.05;;
20298;SDS011;10308;42.688;23.256;2023-11-19T13:41:49;5.40;;;5.00;;
20298;SDS011;10308;42.688;23.256;2023-11-19T13:44:35;3.70;;;3.40;;
20298;SDS011;10308;42.688;23.256;2023-11-19T13:47:02;2.70;;;2.50;;
20298;SDS011;10308;42.688;23.256;2023-11-19T13:49:29;2.83;;;2.63;;
20298;SDS011;10308;42.688;23.256;2023-11-19T13:51:57;2.78;;;2.58;;
20298;SDS011;10308;42.688;23.256;2023-11-19T13:54:32;2.60;;;2.40;;
20298;SDS011;10308;42.688;23.256;2023-11-19T13:56:59;2.42;;;2.33;;
20298;SDS011;10308;42.688;23.256;2023-11-19T13:59:26;2.50;;;2.30;;
20298;SDS011;10308;42.688;23.256;2023-11-19T14:01:53;2.75;;;2.55;;
20298;SDS011;10308;42.688;23.256;2023-11-19T14:04:21;2.90;;;2.70;;
20298;SDS011;10308;42.688;23.256;2023-11-19T14:06:50;3.22;;;2.97;;
20298;SDS011;10308;42.688;23.256;2023-11-19T14:09:17;3.40;;;3.10;;
20298;SDS011;10308;42.688;23.256;2023-11-19T14:11:46;3.53;;;3.22;;
20298;SDS011;10308;42.688;23.256;2023-11-19T14:14:14;3.10;;;2.80;;
20298;SDS011;10308;42.688;23.256;2023-11-19T14:16:42;2.83;;;2.63;;
20298;SDS011;10308;42.688;23.256;2023-11-19T14:19:09;3.20;;;3.00;;
20298;SDS011;10308;42.688;23.256;2023-11-19T14:21:39;3.10;;;2.88;;
20298;SDS011;10308;42.688;23.256;2023-11-19T14:24:06;3.47;;;3.17;;
20298;SDS011;10308;42.688;23.256;2023-11-19T14:26:34;3.30;;;3.00;;
20298;SDS011;10308;42.688;23.256;2023-11-19T14:29:02;3.20;;;3.00;;
20298;SDS011;10308;42.688;23.256;2023-11-19T14:31:29;2.85;;;2.65;;
20298;SDS011;10308;42.688;23.256;2023-11-19T14:33:57;3.13;;;2.92;;
20298;SDS011;10308;42.688;23.256;2023-11-19T14:36:24;2.97;;;2.78;;
20298;SDS011;10308;42.688;23.256;2023-11-19T14:38:51;3.08;;;2.88;;
20298;SDS011;10308;42.688;23.256;2023-11-19T14:41:18;3.45;;;3.15;;
20298;SDS011;10308;42.688;23.256;2023-11-19T14:43:44;4.10;;;3.78;;
20298;SDS011;10308;42.688;23.256;2023-11-19T14:46:15;4.60;;;4.20;;
20298;SDS011;10308;42.688;23.256;2023-11-19T14:48:44;6.63;;;4.60;;
20298;SDS011;10308;42.688;23.256;2023-11-19T14:51:11;5.72;;;5.22;;
20298;SDS011;10308;42.688;23.256;2023-11-19T14:53:40;5.10;;;4.70;;
20298;SDS011;10308;42.688;23.256;2023-11-19T14:56:10;3.60;;;3.30;;